Time,TemperatureF,DewpointF,PressureIn,WindDirection,WindDirectionDegrees,WindSpeedMPH,WindSpeedGustMPH,Humidity,HourlyPrecipIn,Conditions,Clouds,dailyrainin,SoftwareType,DateUTC
2013-04-25 00:01:00,37.0,34.0,29.98,NW,310,2.0,6.0,90,0.00,,,0.01,weatherlink.com 1.10,2013-04-25 05:01:00,
2013-04-25 00:16:00,36.9,34.0,29.98,WSW,256,3.0,7.0,90,0.00,,,0.00,weatherlink.com 1.10,2013-04-25 05:16:00,
2013-04-25 00:31:00,36.8,34.0,29.99,SW,235,5.0,8.0,90,0.00,,,0.00,weatherlink.com 1.10,2013-04-25 05:31:00,
2013-04-25 00:46:00,36.5,33.0,29.99,NW,319,3.0,8.0,88,0.00,,,0.00,weatherlink.com 1.10,2013-04-25 05:46:00,
2013-04-25 01:01:00,35.7,33.0,30.00,West,273,0.0,5.0,88,0.00,,,0.00,weatherlink.com 1.10,2013-04-25 06:01:00,
2013-04-25 01:16:00,35.1,32.0,30.00,WSW,255,2.0,7.0,89,0.00,,,0.00,weatherlink.com 1.10,2013-04-25 06:16:00,
2013-04-25 01:31:00,34.9,32.0,30.01,West,264,1.0,4.0,90,0.00,,,0.00,weatherlink.com 1.10,2013-04-25 06:31:00,
2013-04-25 01:46:00,35.1,33.0,30.02,West,259,0.0,7.0,90,0.00,,,0.00,weatherlink.com 1.10,2013-04-25 06:46:00,
2013-04-25 02:01:00,35.3,33.0,30.02,WNW,301,3.0,5.0,90,0.00,,,0.00,weatherlink.com 1.10,2013-04-25 07:01:00,
2013-04-25 02:16:00,35.4,33.0,30.03,WNW,286,3.0,9.0,90,0.00,,,0.00,weatherlink.com 1.10,2013-04-25 07:16:00,
2013-04-25 02:32:00,35.4,33.0,30.03,WNW,285,2.0,6.0,90,0.00,,,0.00,weatherlink.com 1.10,2013-04-25 07:32:00,
2013-04-25 02:46:00,35.4,33.0,30.03,WSW,258,3.0,8.0,89,0.00,,,0.00,weatherlink.com 1.10,2013-04-25 07:46:00,
2013-04-25 03:02:00,35.1,32.0,30.04,NW,304,2.0,8.0,89,0.00,,,0.00,weatherlink.com 1.10,2013-04-25 08:02:00,
2013-04-25 03:17:00,34.8,32.0,30.04,WNW,284,1.0,9.0,88,0.00,,,0.00,weatherlink.com 1.10,2013-04-25 08:17:00,
2013-04-25 03:32:00,34.5,32.0,30.04,WNW,298,3.0,8.0,89,0.00,,,0.00,weatherlink.com 1.10,2013-04-25 08:32:00,
2013-04-25 03:47:00,34.3,31.0,30.05,West,274,1.0,4.0,88,0.00,,,0.00,weatherlink.com 1.10,2013-04-25 08:47:00,
2013-04-25 04:02:00,34.2,31.0,30.05,West,259,4.0,7.0,88,0.00,,,0.00,weatherlink.com 1.10,2013-04-25 09:02:00,
2013-04-25 04:17:00,34.0,31.0,30.06,West,280,1.0,5.0,88,0.00,,,0.00,weatherlink.com 1.10,2013-04-25 09:17:00,
2013-04-25 04:32:00,33.8,31.0,30.07,WSW,252,1.0,12.0,88,0.00,,,0.00,weatherlink.com 1.10,2013-04-25 09:32:00,
2013-04-25 04:47:00,33.5,30.0,30.07,West,269,1.0,8.0,88,0.00,,,0.00,weatherlink.com 1.10,2013-04-25 09:47:00,
2013-04-25 05:02:00,33.2,30.0,30.08,NW,307,0.0,5.0,89,0.00,,,0.00,weatherlink.com 1.10,2013-04-25 10:02:00,
2013-04-25 05:17:00,33.1,30.0,30.09,West,263,3.0,5.0,89,0.00,,,0.00,weatherlink.com 1.10,2013-04-25 10:17:00,
2013-04-25 05:32:00,32.7,30.0,30.09,West,274,2.0,6.0,89,0.00,,,0.00,weatherlink.com 1.10,2013-04-25 10:32:00,
2013-04-25 05:47:00,32.3,30.0,30.10,West,271,2.0,5.0,89,0.00,,,0.00,weatherlink.com 1.10,2013-04-25 10:47:00,
2013-04-25 06:02:00,32.0,29.0,30.10,NNW,346,1.0,5.0,89,0.00,,,0.00,weatherlink.com 1.10,2013-04-25 11:02:00,
2013-04-25 06:17:00,31.9,29.0,30.11,SW,231,0.0,6.0,90,0.00,,,0.00,weatherlink.com 1.10,2013-04-25 11:17:00,
2013-04-25 06:32:00,31.9,29.0,30.12,WNW,288,1.0,7.0,90,0.00,,,0.00,weatherlink.com 1.10,2013-04-25 11:32:00,
2013-04-25 06:47:00,32.0,29.0,30.12,WNW,295,3.0,7.0,89,0.00,,,0.00,weatherlink.com 1.10,2013-04-25 11:47:00,
2013-04-25 07:02:00,32.3,29.0,30.13,West,262,0.0,7.0,88,0.00,,,0.00,weatherlink.com 1.10,2013-04-25 12:02:00,
2013-04-25 07:17:00,32.5,29.0,30.13,NW,310,0.0,7.0,87,0.00,,,0.00,weatherlink.com 1.10,2013-04-25 12:17:00,
2013-04-25 07:32:00,33.0,30.0,30.14,WSW,245,3.0,6.0,87,0.00,,,0.00,weatherlink.com 1.10,2013-04-25 12:32:00,
2013-04-25 07:47:00,33.5,30.0,30.15,West,265,2.0,8.0,85,0.00,,,0.00,weatherlink.com 1.10,2013-04-25 12:47:00,
2013-04-25 08:02:00,33.8,30.0,30.16,West,273,4.0,8.0,84,0.00,,,0.00,weatherlink.com 1.10,2013-04-25 13:02:00,
2013-04-25 08:17:00,34.3,30.0,30.17,West,274,0.0,7.0,83,0.00,,,0.00,weatherlink.com 1.10,2013-04-25 13:17:00,
2013-04-25 08:32:00,34.9,30.0,30.17,SW,233,4.0,7.0,81,0.00,,,0.00,weatherlink.com 1.10,2013-04-25 13:32:00,
2013-04-25 08:47:00,35.6,30.0,30.18,WNW,284,1.0,7.0,81,0.00,,,0.00,weatherlink.com 1.10,2013-04-25 13:47:00,
2013-04-25 09:03:00,36.4,31.0,30.18,WNW,295,0.0,8.0,80,0.00,,,0.00,weatherlink.com 1.10,2013-04-25 14:03:00,
2013-04-25 09:18:00,37.1,31.0,30.18,WSW,256,1.0,7.0,78,0.00,,,0.00,weatherlink.com 1.10,2013-04-25 14:18:00,
2013-04-25 09:33:00,37.7,31.0,30.18,West,267,5.0,6.0,77,0.00,,,0.00,weatherlink.com 1.10,2013-04-25 14:33:00,
2013-04-25 09:48:00,38.8,31.0,30.19,WNW,291,1.0,9.0,73,0.00,,,0.00,weatherlink.com 1.10,2013-04-25 14:48:00,
2013-04-25 10:03:00,40.2,32.0,30.19,NW,326,4.0,6.0,73,0.00,,,0.00,weatherlink.com 1.10,2013-04-25 15:03:00,
2013-04-25 10:18:00,41.0,32.0,30.20,SW,224,2.0,6.0,71,0.00,,,0.00,weatherlink.com 1.10,2013-04-25 15:18:00,
2013-04-25 10:33:00,40.6,32.0,30.20,WSW,258,6.0,8.0,71,0.00,,,0.00,weatherlink.com 1.10,2013-04-25 15:33:00,
2013-04-25 10:48:00,41.4,32.0,30.20,WNW,297,4.0,7.0,69,0.00,,,0.00,weatherlink.com 1.10,2013-04-25 15:48:00,
2013-04-25 11:03:00,41.7,32.0,30.20,South,191,3.0,8.0,69,0.00,,,0.00,weatherlink.com 1.10,2013-04-25 16:03:00,
2013-04-25 11:18:00,42.9,31.0,30.20,West,281,3.0,6.0,63,0.00,,,0.00,weatherlink.com 1.10,2013-04-25 16:18:00,
2013-04-25 11:33:00,42.7,32.0,30.20,NW,317,4.0,6.0,65,0.00,,,0.00,weatherlink.com 1.10,2013-04-25 16:33:00,
2013-04-25 11:48:00,41.4,30.0,30.20,WNW,284,6.0,8.0,64,0.00,,,0.00,weatherlink.com 1.10,2013-04-25 16:48:00,
2013-04-25 12:03:00,42.5,31.0,30.20,SSE,165,0.0,6.0,64,0.00,,,0.00,weatherlink.com 1.10,2013-04-25 17:03:00,
2013-04-25 12:18:00,43.8,30.0,30.20,West,280,1.0,12.0,59,0.00,,,0.00,weatherlink.com 1.10,2013-04-25 17:18:00,
2013-04-25 12:33:00,44.2,31.0,30.20,SE,131,0.0,6.0,61,0.00,,,0.00,weatherlink.com 1.10,2013-04-25 17:33:00,
2013-04-25 12:48:00,46.0,31.0,30.19,SE,127,3.0,6.0,56,0.00,,,0.00,weatherlink.com 1.10,2013-04-25 17:48:00,
2013-04-25 13:03:00,46.1,29.0,30.19,WNW,291,2.0,7.0,52,0.00,,,0.00,weatherlink.com 1.10,2013-04-25 18:03:00,
2013-04-25 13:18:00,46.9,30.0,30.18,SSW,201,2.0,4.0,52,0.00,,,0.00,weatherlink.com 1.10,2013-04-25 18:18:00,
2013-04-25 13:33:00,46.5,30.0,30.18,WSW,246,3.0,6.0,52,0.00,,,0.00,weatherlink.com 1.10,2013-04-25 18:33:00,
2013-04-25 13:48:00,46.8,31.0,30.18,SE,132,1.0,7.0,55,0.00,,,0.00,weatherlink.com 1.10,2013-04-25 18:48:00,
2013-04-25 14:03:00,48.0,30.0,30.17,WNW,284,1.0,6.0,51,0.00,,,0.00,weatherlink.com 1.10,2013-04-25 19:03:00,
2013-04-25 14:18:00,48.3,30.0,30.17,SSW,193,1.0,6.0,50,0.00,,,0.00,weatherlink.com 1.10,2013-04-25 19:18:00,
2013-04-25 14:33:00,48.8,32.0,30.17,SW,228,4.0,8.0,53,0.00,,,0.00,weatherlink.com 1.10,2013-04-25 19:33:00,
2013-04-25 14:48:00,49.9,30.0,30.17,WNW,290,2.0,8.0,46,0.00,,,0.00,weatherlink.com 1.10,2013-04-25 19:48:00,
2013-04-25 15:03:00,49.4,30.0,30.17,South,184,3.0,6.0,47,0.00,,,0.00,weatherlink.com 1.10,2013-04-25 20:03:00,
2013-04-25 15:18:00,50.1,30.0,30.16,SE,139,2.0,7.0,46,0.00,,,0.00,weatherlink.com 1.10,2013-04-25 20:18:00,
2013-04-25 15:34:00,51.1,30.0,30.17,West,269,1.0,5.0,44,0.00,,,0.00,weatherlink.com 1.10,2013-04-25 20:34:00,
2013-04-25 15:49:00,50.2,29.0,30.16,West,274,1.0,7.0,45,0.00,,,0.00,weatherlink.com 1.10,2013-04-25 20:49:00,
2013-04-25 16:04:00,51.4,29.0,30.16,West,276,2.0,5.0,42,0.00,,,0.00,weatherlink.com 1.10,2013-04-25 21:04:00,
2013-04-25 16:19:00,52.0,29.0,30.16,SSE,154,2.0,5.0,41,0.00,,,0.00,weatherlink.com 1.10,2013-04-25 21:19:00,
2013-04-25 16:34:00,51.7,28.0,30.16,South,186,3.0,6.0,41,0.00,,,0.00,weatherlink.com 1.10,2013-04-25 21:34:00,
2013-04-25 16:49:00,52.5,28.0,30.15,SE,131,2.0,5.0,39,0.00,,,0.00,weatherlink.com 1.10,2013-04-25 21:49:00,
2013-04-25 17:19:00,52.5,29.0,30.15,SE,141,3.0,5.0,40,0.00,,,0.00,weatherlink.com 1.10,2013-04-25 22:19:00,
2013-04-25 17:34:00,52.5,29.0,30.14,SE,129,0.0,5.0,41,0.00,,,0.00,weatherlink.com 1.10,2013-04-25 22:34:00,
2013-04-25 17:50:00,52.6,29.0,30.14,SSE,167,0.0,5.0,40,0.00,,,0.00,weatherlink.com 1.10,2013-04-25 22:50:00,
2013-04-25 18:04:00,52.5,28.0,30.14,SSE,150,3.0,5.0,39,0.00,,,0.00,weatherlink.com 1.10,2013-04-25 23:04:00,
2013-04-25 18:19:00,52.7,28.0,30.14,South,189,4.0,4.0,38,0.00,,,0.00,weatherlink.com 1.10,2013-04-25 23:19:00,
2013-04-25 18:34:00,52.5,28.0,30.14,ESE,114,0.0,4.0,39,0.00,,,0.00,weatherlink.com 1.10,2013-04-25 23:34:00,
2013-04-25 18:49:00,52.7,28.0,30.13,SE,145,2.0,3.0,38,0.00,,,0.00,weatherlink.com 1.10,2013-04-25 23:49:00,
2013-04-25 19:04:00,51.6,28.0,30.13,SSE,167,0.0,4.0,41,0.00,,,0.00,weatherlink.com 1.10,2013-04-26 00:04:00,
2013-04-25 19:19:00,50.6,27.0,30.13,SSE,160,0.0,6.0,41,0.00,,,0.00,weatherlink.com 1.10,2013-04-26 00:19:00,
2013-04-25 19:34:00,49.1,29.0,30.14,SSE,163,0.0,1.0,46,0.00,,,0.00,weatherlink.com 1.10,2013-04-26 00:34:00,
2013-04-25 19:49:00,47.9,28.0,30.14,SE,146,0.0,5.0,47,0.00,,,0.00,weatherlink.com 1.10,2013-04-26 00:49:00,
2013-04-25 20:04:00,47.3,28.0,30.14,South,184,0.0,6.0,47,0.00,,,0.00,weatherlink.com 1.10,2013-04-26 01:04:00,
2013-04-25 20:19:00,46.7,29.0,30.14,SE,144,1.0,1.0,50,0.00,,,0.00,weatherlink.com 1.10,2013-04-26 01:19:00,
2013-04-25 20:34:00,46.2,29.0,30.14,SE,131,0.0,2.0,52,0.00,,,0.00,weatherlink.com 1.10,2013-04-26 01:34:00,
2013-04-25 20:49:00,45.9,29.0,30.14,SSE,156,0.0,2.0,53,0.00,,,0.00,weatherlink.com 1.10,2013-04-26 01:49:00,
2013-04-25 21:04:00,45.3,30.0,30.14,SE,126,0.0,1.0,55,0.00,,,0.00,weatherlink.com 1.10,2013-04-26 02:04:00,
2013-04-25 21:19:00,44.7,29.0,30.13,SSE,159,0.0,1.0,55,0.00,,,0.00,weatherlink.com 1.10,2013-04-26 02:19:00,
2013-04-25 21:34:00,44.7,30.0,30.13,SSE,159,0.0,0.0,56,0.00,,,0.00,weatherlink.com 1.10,2013-04-26 02:34:00,
2013-04-25 21:49:00,44.7,30.0,30.13,SE,124,0.0,3.0,57,0.00,,,0.00,weatherlink.com 1.10,2013-04-26 02:49:00,
2013-04-25 22:04:00,44.8,30.0,30.13,East,88,0.0,4.0,57,0.00,,,0.00,weatherlink.com 1.10,2013-04-26 03:04:00,
2013-04-25 22:19:00,44.8,31.0,30.12,SSE,150,0.0,1.0,58,0.00,,,0.00,weatherlink.com 1.10,2013-04-26 03:19:00,
2013-04-25 22:34:00,45.5,31.0,30.11,East,93,1.0,6.0,58,0.00,,,0.00,weatherlink.com 1.10,2013-04-26 03:34:00,
2013-04-25 22:49:00,45.4,31.0,30.11,East,94,4.0,7.0,57,0.00,,,0.00,weatherlink.com 1.10,2013-04-26 03:49:00,
2013-04-25 23:04:00,45.7,31.0,30.11,SE,127,3.0,4.0,56,0.00,,,0.00,weatherlink.com 1.10,2013-04-26 04:04:00,
2013-04-25 23:19:00,45.3,31.0,30.10,SW,214,0.0,4.0,58,0.00,,,0.00,weatherlink.com 1.10,2013-04-26 04:19:00,
2013-04-25 23:34:00,44.5,30.0,30.09,SW,231,0.0,3.0,58,0.00,,,0.00,weatherlink.com 1.10,2013-04-26 04:34:00,
2013-04-25 23:49:00,44.9,31.0,30.09,SE,132,0.0,5.0,58,0.00,,,0.00,weatherlink.com 1.10,2013-04-26 04:49:00,